sensor_id;sensor_type;location;lat;lon;timestamp;temperature;humidity
69895;DHT22;57172;52.034;5.090;2023-11-18T00:01:44;6.70;97.40
69895;DHT22;57172;52.034;5.090;2023-11-18T00:04:11;6.70;97.50
69895;DHT22;57172;52.034;5.090;2023-11-18T00:06:45;6.70;97.60
69895;DHT22;57172;52.034;5.090;2023-11-18T00:09:12;6.70;97.60
69895;DHT22;57172;52.034;5.090;2023-11-18T00:11:42;6.70;97.60
69895;DHT22;57172;52.034;5.090;2023-11-18T00:14:10;6.70;97.60
69895;DHT22;57172;52.034;5.090;2023-11-18T00:16:40;6.80;97.60
69895;DHT22;57172;52.034;5.090;2023-11-18T00:19:07;6.70;97.70
69895;DHT22;57172;52.034;5.090;2023-11-18T00:21:36;6.80;97.80
69895;DHT22;57172;52.034;5.090;2023-11-18T00:24:03;6.80;97.80
69895;DHT22;57172;52.034;5.090;2023-11-18T00:26:31;6.80;97.80
69895;DHT22;57172;52.034;5.090;2023-11-18T00:28:58;6.80;97.70
69895;DHT22;57172;52.034;5.090;2023-11-18T00:31:27;6.80;97.70
69895;DHT22;57172;52.034;5.090;2023-11-18T00:33:54;6.80;97.70
69895;DHT22;57172;52.034;5.090;2023-11-18T00:36:21;6.80;97.60
69895;DHT22;57172;52.034;5.090;2023-11-18T00:38:48;6.80;97.70
69895;DHT22;57172;52.034;5.090;2023-11-18T00:41:16;6.80;97.80
69895;DHT22;57172;52.034;5.090;2023-11-18T00:43:44;6.80;97.70
69895;DHT22;57172;52.034;5.090;2023-11-18T00:46:11;6.80;97.90
69895;DHT22;57172;52.034;5.090;2023-11-18T00:48:38;6.80;97.80
69895;DHT22;57172;52.034;5.090;2023-11-18T00:51:08;6.80;97.70
69895;DHT22;57172;52.034;5.090;2023-11-18T00:53:35;6.80;97.40
69895;DHT22;57172;52.034;5.090;2023-11-18T00:56:02;6.80;97.20
69895;DHT22;57172;52.034;5.090;2023-11-18T00:58:34;6.80;97.20
69895;DHT22;57172;52.034;5.090;2023-11-18T01:01:05;6.70;97.30
69895;DHT22;57172;52.034;5.090;2023-11-18T01:03:33;6.70;97.50
69895;DHT22;57172;52.034;5.090;2023-11-18T01:06:01;6.70;97.60
69895;DHT22;57172;52.034;5.090;2023-11-18T01:08:27;6.80;97.60
69895;DHT22;57172;52.034;5.090;2023-11-18T01:10:54;6.80;97.70
69895;DHT22;57172;52.034;5.090;2023-11-18T01:13:21;6.80;97.60
69895;DHT22;57172;52.034;5.090;2023-11-18T01:15:49;6.80;97.40
69895;DHT22;57172;52.034;5.090;2023-11-18T01:18:16;6.80;97.40
69895;DHT22;57172;52.034;5.090;2023-11-18T01:20:44;6.70;97.30
69895;DHT22;57172;52.034;5.090;2023-11-18T01:23:11;6.70;97.40
69895;DHT22;57172;52.034;5.090;2023-11-18T01:25:38;6.70;97.40
69895;DHT22;57172;52.034;5.090;2023-11-18T01:28:06;6.70;97.40
69895;DHT22;57172;52.034;5.090;2023-11-18T01:30:33;6.70;97.30
69895;DHT22;57172;52.034;5.090;2023-11-18T01:33:00;6.70;97.40
69895;DHT22;57172;52.034;5.090;2023-11-18T01:35:30;6.70;97.40
69895;DHT22;57172;52.034;5.090;2023-11-18T01:37:58;6.70;97.30
69895;DHT22;57172;52.034;5.090;2023-11-18T01:40:26;6.70;97.30
69895;DHT22;57172;52.034;5.090;2023-11-18T01:42:52;6.70;97.30
69895;DHT22;57172;52.034;5.090;2023-11-18T01:45:19;6.70;97.40
69895;DHT22;57172;52.034;5.090;2023-11-18T01:47:46;6.70;97.50
69895;DHT22;57172;52.034;5.090;2023-11-18T01:50:16;6.70;97.50
69895;DHT22;57172;52.034;5.090;2023-11-18T01:52:45;6.70;97.70
69895;DHT22;57172;52.034;5.090;2023-11-18T01:55:14;6.70;97.80
69895;DHT22;57172;52.034;5.090;2023-11-18T01:57:41;6.70;97.70
69895;DHT22;57172;52.034;5.090;2023-11-18T02:00:12;6.70;97.90
69895;DHT22;57172;52.034;5.090;2023-11-18T02:02:40;6.80;97.80
69895;DHT22;57172;52.034;5.090;2023-11-18T02:05:08;6.70;97.70
69895;DHT22;57172;52.034;5.090;2023-11-18T02:07:35;6.70;97.70
69895;DHT22;57172;52.034;5.090;2023-11-18T02:10:05;6.70;97.90
69895;DHT22;57172;52.034;5.090;2023-11-18T02:12:46;6.80;97.90
69895;DHT22;57172;52.034;5.090;2023-11-18T02:15:16;6.80;97.90
69895;DHT22;57172;52.034;5.090;2023-11-18T02:17:45;6.80;97.70
69895;DHT22;57172;52.034;5.090;2023-11-18T02:20:13;6.70;97.80
69895;DHT22;57172;52.034;5.090;2023-11-18T02:22:44;6.70;97.80
69895;DHT22;57172;52.034;5.090;2023-11-18T02:25:17;6.70;97.90
69895;DHT22;57172;52.034;5.090;2023-11-18T02:27:45;6.80;97.80
69895;DHT22;57172;52.034;5.090;2023-11-18T02:30:16;6.70;97.70
69895;DHT22;57172;52.034;5.090;2023-11-18T02:32:51;6.70;97.70
69895;DHT22;57172;52.034;5.090;2023-11-18T02:35:23;6.70;97.70
69895;DHT22;57172;52.034;5.090;2023-11-18T02:37:53;6.70;97.50
69895;DHT22;57172;52.034;5.090;2023-11-18T02:40:41;6.70;97.70
69895;DHT22;57172;52.034;5.090;2023-11-18T02:43:11;6.60;97.60
69895;DHT22;57172;52.034;5.090;2023-11-18T02:45:38;6.60;97.70
69895;DHT22;57172;52.034;5.090;2023-11-18T02:48:09;6.70;97.60
69895;DHT22;57172;52.034;5.090;2023-11-18T02:50:36;6.60;97.80
69895;DHT22;57172;52.034;5.090;2023-11-18T02:53:04;6.70;97.70
69895;DHT22;57172;52.034;5.090;2023-11-18T02:55:32;6.70;97.70
69895;DHT22;57172;52.034;5.090;2023-11-18T02:57:58;6.70;97.60
69895;DHT22;57172;52.034;5.090;2023-11-18T03:00:25;6.70;97.80
69895;DHT22;57172;52.034;5.090;2023-11-18T03:02:52;6.70;97.80
69895;DHT22;57172;52.034;5.090;2023-11-18T03:05:20;6.70;97.80
69895;DHT22;57172;52.034;5.090;2023-11-18T03:07:48;6.80;97.80
69895;DHT22;57172;52.034;5.090;2023-11-18T03:10:21;6.80;97.80
69895;DHT22;57172;52.034;5.090;2023-11-18T03:12:52;6.80;98.00
69895;DHT22;57172;52.034;5.090;2023-11-18T03:15:20;6.80;97.90
69895;DHT22;57172;52.034;5.090;2023-11-18T03:17:49;6.80;97.80
69895;DHT22;57172;52.034;5.090;2023-11-18T03:20:18;6.80;97.70
69895;DHT22;57172;52.034;5.090;2023-11-18T03:22:46;6.80;97.60
69895;DHT22;57172;52.034;5.090;2023-11-18T03:25:13;6.80;97.40
69895;DHT22;57172;52.034;5.090;2023-11-18T03:27:40;6.80;97.20
69895;DHT22;57172;52.034;5.090;2023-11-18T03:30:08;6.80;97.40
69895;DHT22;57172;52.034;5.090;2023-11-18T03:32:37;6.80;97.50
69895;DHT22;57172;52.034;5.090;2023-11-18T03:35:06;6.80;97.40
69895;DHT22;57172;52.034;5.090;2023-11-18T03:37:40;6.70;97.30
69895;DHT22;57172;52.034;5.090;2023-11-18T03:40:11;6.70;97.20
69895;DHT22;57172;52.034;5.090;2023-11-18T03:42:39;6.70;97.40
69895;DHT22;57172;52.034;5.090;2023-11-18T03:45:07;6.70;97.60
69895;DHT22;57172;52.034;5.090;2023-11-18T03:47:36;6.70;97.60
69895;DHT22;57172;52.034;5.090;2023-11-18T03:50:03;6.70;97.60
69895;DHT22;57172;52.034;5.090;2023-11-18T03:52:32;6.70;97.60
69895;DHT22;57172;52.034;5.090;2023-11-18T03:54:59;6.70;97.80
69895;DHT22;57172;52.034;5.090;2023-11-18T03:57:25;6.80;97.90
69895;DHT22;57172;52.034;5.090;2023-11-18T03:59:52;6.80;98.00
69895;DHT22;57172;52.034;5.090;2023-11-18T04:02:19;6.80;98.00
69895;DHT22;57172;52.034;5.090;2023-11-18T04:04:46;6.80;97.80
69895;DHT22;57172;52.034;5.090;2023-11-18T04:07:14;6.80;97.60
69895;DHT22;57172;52.034;5.090;2023-11-18T04:09:41;6.80;97.40
69895;DHT22;57172;52.034;5.090;2023-11-18T04:12:10;6.80;97.50
69895;DHT22;57172;52.034;5.090;2023-11-18T04:14:37;6.80;97.70
69895;DHT22;57172;52.034;5.090;2023-11-18T04:17:04;6.80;97.60
69895;DHT22;57172;52.034;5.090;2023-11-18T04:19:34;6.80;97.50
69895;DHT22;57172;52.034;5.090;2023-11-18T04:22:01;6.90;97.60
69895;DHT22;57172;52.034;5.090;2023-11-18T04:24:28;6.90;97.50
69895;DHT22;57172;52.034;5.090;2023-11-18T04:26:55;6.90;97.60
69895;DHT22;57172;52.034;5.090;2023-11-18T04:29:22;6.90;97.60
69895;DHT22;57172;52.034;5.090;2023-11-18T04:31:50;6.90;97.50
69895;DHT22;57172;52.034;5.090;2023-11-18T04:34:17;6.90;97.30
69895;DHT22;57172;52.034;5.090;2023-11-18T04:36:43;6.90;97.30
69895;DHT22;57172;52.034;5.090;2023-11-18T04:39:10;6.80;97.40
69895;DHT22;57172;52.034;5.090;2023-11-18T04:41:42;6.80;97.50
69895;DHT22;57172;52.034;5.090;2023-11-18T04:44:10;6.90;97.70
69895;DHT22;57172;52.034;5.090;2023-11-18T04:46:37;6.90;97.80
69895;DHT22;57172;52.034;5.090;2023-11-18T04:49:04;6.90;97.80
69895;DHT22;57172;52.034;5.090;2023-11-18T04:51:32;6.90;97.80
69895;DHT22;57172;52.034;5.090;2023-11-18T04:54:00;6.90;97.70
69895;DHT22;57172;52.034;5.090;2023-11-18T04:56:27;7.00;97.80
69895;DHT22;57172;52.034;5.090;2023-11-18T04:58:53;7.00;97.80
69895;DHT22;57172;52.034;5.090;2023-11-18T05:01:20;7.00;97.80
69895;DHT22;57172;52.034;5.090;2023-11-18T05:03:47;7.00;97.70
69895;DHT22;57172;52.034;5.090;2023-11-18T05:06:14;7.00;97.50
69895;DHT22;57172;52.034;5.090;2023-11-18T05:08:41;7.00;97.50
69895;DHT22;57172;52.034;5.090;2023-11-18T05:11:08;7.00;97.40
69895;DHT22;57172;52.034;5.090;2023-11-18T05:13:35;7.00;97.50
69895;DHT22;57172;52.034;5.090;2023-11-18T05:16:03;6.90;97.20
69895;DHT22;57172;52.034;5.090;2023-11-18T05:18:30;7.00;97.60
69895;DHT22;57172;52.034;5.090;2023-11-18T05:21:03;7.00;97.80
69895;DHT22;57172;52.034;5.090;2023-11-18T05:23:36;7.00;97.70
69895;DHT22;57172;52.034;5.090;2023-11-18T05:26:03;7.10;97.70
69895;DHT22;57172;52.034;5.090;2023-11-18T05:28:33;7.10;97.60
69895;DHT22;57172;52.034;5.090;2023-11-18T05:31:00;7.10;97.60
69895;DHT22;57172;52.034;5.090;2023-11-18T05:33:31;7.10;97.50
69895;DHT22;57172;52.034;5.090;2023-11-18T05:36:01;7.10;97.50
69895;DHT22;57172;52.034;5.090;2023-11-18T05:38:31;7.10;97.50
69895;DHT22;57172;52.034;5.090;2023-11-18T05:41:01;7.10;97.50
69895;DHT22;57172;52.034;5.090;2023-11-18T05:43:31;7.10;97.40
69895;DHT22;57172;52.034;5.090;2023-11-18T05:46:07;7.10;97.50
69895;DHT22;57172;52.034;5.090;2023-11-18T05:48:52;7.10;97.50
69895;DHT22;57172;52.034;5.090;2023-11-18T05:51:21;7.10;97.40
69895;DHT22;57172;52.034;5.090;2023-11-18T05:53:48;7.10;97.60
69895;DHT22;57172;52.034;5.090;2023-11-18T05:56:16;7.10;97.70
69895;DHT22;57172;52.034;5.090;2023-11-18T05:58:45;7.10;97.60
69895;DHT22;57172;52.034;5.090;2023-11-18T06:01:13;7.10;97.60
69895;DHT22;57172;52.034;5.090;2023-11-18T06:03:44;7.10;97.50
69895;DHT22;57172;52.034;5.090;2023-11-18T06:06:14;7.20;97.60
69895;DHT22;57172;52.034;5.090;2023-11-18T06:08:48;7.20;97.60
69895;DHT22;57172;52.034;5.090;2023-11-18T06:11:15;7.10;97.40
69895;DHT22;57172;52.034;5.090;2023-11-18T06:13:50;7.10;97.40
69895;DHT22;57172;52.034;5.090;2023-11-18T06:16:25;7.10;97.40
69895;DHT22;57172;52.034;5.090;2023-11-18T06:18:54;7.10;97.50
69895;DHT22;57172;52.034;5.090;2023-11-18T06:21:22;7.20;97.60
69895;DHT22;57172;52.034;5.090;2023-11-18T06:24:00;7.20;97.40
69895;DHT22;57172;52.034;5.090;2023-11-18T06:26:27;7.20;97.30
69895;DHT22;57172;52.034;5.090;2023-11-18T06:28:55;7.10;97.50
69895;DHT22;57172;52.034;5.090;2023-11-18T06:31:23;7.10;97.40
69895;DHT22;57172;52.034;5.090;2023-11-18T06:33:53;7.10;97.60
69895;DHT22;57172;52.034;5.090;2023-11-18T06:36:20;7.20;97.60
69895;DHT22;57172;52.034;5.090;2023-11-18T06:38:49;7.20;97.60
69895;DHT22;57172;52.034;5.090;2023-11-18T06:41:18;7.20;97.50
69895;DHT22;57172;52.034;5.090;2023-11-18T06:43:46;7.20;97.30
69895;DHT22;57172;52.034;5.090;2023-11-18T06:46:29;7.20;97.40
69895;DHT22;57172;52.034;5.090;2023-11-18T06:48:58;7.20;97.60
69895;DHT22;57172;52.034;5.090;2023-11-18T06:51:26;7.20;97.50
69895;DHT22;57172;52.034;5.090;2023-11-18T06:53:55;7.20;97.50
69895;DHT22;57172;52.034;5.090;2023-11-18T06:56:26;7.20;97.60
69895;DHT22;57172;52.034;5.090;2023-11-18T06:58:54;7.20;97.60
69895;DHT22;57172;52.034;5.090;2023-11-18T07:01:21;7.20;97.40
69895;DHT22;57172;52.034;5.090;2023-11-18T07:03:48;7.30;97.60
69895;DHT22;57172;52.034;5.090;2023-11-18T07:06:20;7.30;97.60
69895;DHT22;57172;52.034;5.090;2023-11-18T07:08:50;7.30;97.60
69895;DHT22;57172;52.034;5.090;2023-11-18T07:11:17;7.30;97.40
69895;DHT22;57172;52.034;5.090;2023-11-18T07:13:49;7.30;97.40
69895;DHT22;57172;52.034;5.090;2023-11-18T07:16:16;7.30;97.30
69895;DHT22;57172;52.034;5.090;2023-11-18T07:18:43;7.30;97.40
69895;DHT22;57172;52.034;5.090;2023-11-18T07:21:10;7.30;97.30
69895;DHT22;57172;52.034;5.090;2023-11-18T07:23:37;7.30;97.30
69895;DHT22;57172;52.034;5.090;2023-11-18T07:26:04;7.30;97.40
69895;DHT22;57172;52.034;5.090;2023-11-18T07:28:31;7.30;97.30
69895;DHT22;57172;52.034;5.090;2023-11-18T07:30:58;7.30;97.40
69895;DHT22;57172;52.034;5.090;2023-11-18T07:33:26;7.30;97.40
69895;DHT22;57172;52.034;5.090;2023-11-18T07:35:53;7.30;97.40
69895;DHT22;57172;52.034;5.090;2023-11-18T07:38:21;7.30;97.40
69895;DHT22;57172;52.034;5.090;2023-11-18T07:40:49;7.30;97.40
69895;DHT22;57172;52.034;5.090;2023-11-18T07:43:16;7.30;97.30
69895;DHT22;57172;52.034;5.090;2023-11-18T07:45:43;7.20;97.10
69895;DHT22;57172;52.034;5.090;2023-11-18T07:48:10;7.20;97.20
69895;DHT22;57172;52.034;5.090;2023-11-18T07:50:40;7.20;97.30
69895;DHT22;57172;52.034;5.090;2023-11-18T07:53:11;7.20;97.40
69895;DHT22;57172;52.034;5.090;2023-11-18T07:55:38;7.20;97.30
69895;DHT22;57172;52.034;5.090;2023-11-18T07:58:09;7.20;96.90
69895;DHT22;57172;52.034;5.090;2023-11-18T08:00:43;7.20;97.20
69895;DHT22;57172;52.034;5.090;2023-11-18T08:03:12;7.20;97.50
69895;DHT22;57172;52.034;5.090;2023-11-18T08:05:41;7.20;97.40
69895;DHT22;57172;52.034;5.090;2023-11-18T08:08:11;7.20;97.40
69895;DHT22;57172;52.034;5.090;2023-11-18T08:10:39;7.20;97.40
69895;DHT22;57172;52.034;5.090;2023-11-18T08:13:07;7.20;97.60
69895;DHT22;57172;52.034;5.090;2023-11-18T08:15:38;7.20;97.70
69895;DHT22;57172;52.034;5.090;2023-11-18T08:18:05;7.20;97.70
69895;DHT22;57172;52.034;5.090;2023-11-18T08:20:33;7.20;97.70
69895;DHT22;57172;52.034;5.090;2023-11-18T08:23:00;7.20;97.80
69895;DHT22;57172;52.034;5.090;2023-11-18T08:25:27;7.30;97.80
69895;DHT22;57172;52.034;5.090;2023-11-18T08:27:54;7.30;97.70
69895;DHT22;57172;52.034;5.090;2023-11-18T08:30:21;7.20;97.70
69895;DHT22;57172;52.034;5.090;2023-11-18T08:32:48;7.30;97.90
69895;DHT22;57172;52.034;5.090;2023-11-18T08:35:15;7.30;98.20
69895;DHT22;57172;52.034;5.090;2023-11-18T08:37:43;7.40;98.00
69895;DHT22;57172;52.034;5.090;2023-11-18T08:40:11;7.30;97.50
69895;DHT22;57172;52.034;5.090;2023-11-18T08:42:46;7.30;97.90
69895;DHT22;57172;52.034;5.090;2023-11-18T08:45:24;7.40;98.20
69895;DHT22;57172;52.034;5.090;2023-11-18T08:47:55;7.40;98.30
69895;DHT22;57172;52.034;5.090;2023-11-18T08:50:23;7.40;97.40
69895;DHT22;57172;52.034;5.090;2023-11-18T08:52:52;7.50;98.00
69895;DHT22;57172;52.034;5.090;2023-11-18T08:55:30;7.50;97.70
69895;DHT22;57172;52.034;5.090;2023-11-18T08:58:11;7.50;98.00
69895;DHT22;57172;52.034;5.090;2023-11-18T09:00:59;7.50;97.60
69895;DHT22;57172;52.034;5.090;2023-11-18T09:03:33;7.50;97.40
69895;DHT22;57172;52.034;5.090;2023-11-18T09:06:05;7.50;97.00
69895;DHT22;57172;52.034;5.090;2023-11-18T09:08:42;7.50;96.70
69895;DHT22;57172;52.034;5.090;2023-11-18T09:11:14;7.40;97.20
69895;DHT22;57172;52.034;5.090;2023-11-18T09:13:43;7.40;97.20
69895;DHT22;57172;52.034;5.090;2023-11-18T09:16:37;7.40;97.30
69895;DHT22;57172;52.034;5.090;2023-11-18T09:19:06;7.40;97.30
69895;DHT22;57172;52.034;5.090;2023-11-18T09:21:33;7.40;97.50
69895;DHT22;57172;52.034;5.090;2023-11-18T09:24:03;7.40;97.60
69895;DHT22;57172;52.034;5.090;2023-11-18T09:26:34;7.30;97.20
69895;DHT22;57172;52.034;5.090;2023-11-18T09:29:02;7.30;97.60
69895;DHT22;57172;52.034;5.090;2023-11-18T09:31:29;7.30;97.80
69895;DHT22;57172;52.034;5.090;2023-11-18T09:33:58;7.30;97.90
69895;DHT22;57172;52.034;5.090;2023-11-18T09:36:25;7.30;98.00
69895;DHT22;57172;52.034;5.090;2023-11-18T09:38:55;7.40;98.00
69895;DHT22;57172;52.034;5.090;2023-11-18T09:41:23;7.40;98.10
69895;DHT22;57172;52.034;5.090;2023-11-18T09:43:54;7.40;98.20
69895;DHT22;57172;52.034;5.090;2023-11-18T09:46:25;7.40;98.10
69895;DHT22;57172;52.034;5.090;2023-11-18T09:49:21;7.40;98.10
69895;DHT22;57172;52.034;5.090;2023-11-18T09:51:57;7.40;98.30
69895;DHT22;57172;52.034;5.090;2023-11-18T09:57:16;7.40;98.80
69895;DHT22;57172;52.034;5.090;2023-11-18T10:02:39;7.50;98.80
69895;DHT22;57172;52.034;5.090;2023-11-18T10:05:09;7.50;98.80
69895;DHT22;57172;52.034;5.090;2023-11-18T10:07:41;7.50;99.00
69895;DHT22;57172;52.034;5.090;2023-11-18T10:10:09;7.50;99.10
69895;DHT22;57172;52.034;5.090;2023-11-18T10:12:46;7.50;98.70
69895;DHT22;57172;52.034;5.090;2023-11-18T10:15:21;7.60;98.70
69895;DHT22;57172;52.034;5.090;2023-11-18T10:17:52;7.60;98.70
69895;DHT22;57172;52.034;5.090;2023-11-18T10:20:43;7.60;98.40
69895;DHT22;57172;52.034;5.090;2023-11-18T10:23:15;7.60;98.90
69895;DHT22;57172;52.034;5.090;2023-11-18T10:25:53;7.60;98.90
69895;DHT22;57172;52.034;5.090;2023-11-18T10:28:27;7.70;98.50
69895;DHT22;57172;52.034;5.090;2023-11-18T10:31:05;7.70;98.50
69895;DHT22;57172;52.034;5.090;2023-11-18T10:33:40;7.70;98.70
69895;DHT22;57172;52.034;5.090;2023-11-18T10:36:21;7.70;98.90
69895;DHT22;57172;52.034;5.090;2023-11-18T10:38:52;7.80;99.00
69895;DHT22;57172;52.034;5.090;2023-11-18T10:41:23;7.80;98.80
69895;DHT22;57172;52.034;5.090;2023-11-18T10:44:08;7.80;98.80
69895;DHT22;57172;52.034;5.090;2023-11-18T10:46:51;7.90;99.10
69895;DHT22;57172;52.034;5.090;2023-11-18T10:49:23;7.90;99.00
69895;DHT22;57172;52.034;5.090;2023-11-18T10:51:51;7.90;98.80
69895;DHT22;57172;52.034;5.090;2023-11-18T10:54:18;7.90;98.80
69895;DHT22;57172;52.034;5.090;2023-11-18T10:56:47;8.00;98.70
69895;DHT22;57172;52.034;5.090;2023-11-18T10:59:14;8.00;98.60
69895;DHT22;57172;52.034;5.090;2023-11-18T11:01:45;7.90;98.40
69895;DHT22;57172;52.034;5.090;2023-11-18T11:04:16;7.90;98.30
69895;DHT22;57172;52.034;5.090;2023-11-18T11:06:49;7.90;98.50
69895;DHT22;57172;52.034;5.090;2023-11-18T11:09:24;7.90;98.30
69895;DHT22;57172;52.034;5.090;2023-11-18T11:11:59;7.90;98.40
69895;DHT22;57172;52.034;5.090;2023-11-18T11:14:34;7.90;98.80
69895;DHT22;57172;52.034;5.090;2023-11-18T11:17:12;7.90;99.00
69895;DHT22;57172;52.034;5.090;2023-11-18T11:19:50;7.90;99.00
69895;DHT22;57172;52.034;5.090;2023-11-18T11:22:28;7.90;99.00
69895;DHT22;57172;52.034;5.090;2023-11-18T11:25:09;7.90;99.10
69895;DHT22;57172;52.034;5.090;2023-11-18T11:28:07;7.90;99.30
69895;DHT22;57172;52.034;5.090;2023-11-18T11:30:58;7.90;99.70
69895;DHT22;57172;52.034;5.090;2023-11-18T11:36:00;8.00;99.90
69895;DHT22;57172;52.034;5.090;2023-11-18T11:38:29;8.00;99.90
69895;DHT22;57172;52.034;5.090;2023-11-18T11:40:58;8.00;99.90
69895;DHT22;57172;52.034;5.090;2023-11-18T11:43:29;8.00;99.90
69895;DHT22;57172;52.034;5.090;2023-11-18T11:45:56;8.00;99.90
69895;DHT22;57172;52.034;5.090;2023-11-18T11:48:24;8.00;99.90
69895;DHT22;57172;52.034;5.090;2023-11-18T11:53:36;8.10;99.90
69895;DHT22;57172;52.034;5.090;2023-11-18T11:56:12;8.10;99.90
69895;DHT22;57172;52.034;5.090;2023-11-18T11:58:47;8.20;99.90
69895;DHT22;57172;52.034;5.090;2023-11-18T12:01:25;8.20;99.90
69895;DHT22;57172;52.034;5.090;2023-11-18T12:03:59;8.20;99.90
69895;DHT22;57172;52.034;5.090;2023-11-18T12:06:33;8.30;99.90
69895;DHT22;57172;52.034;5.090;2023-11-18T12:09:04;8.30;99.90
69895;DHT22;57172;52.034;5.090;2023-11-18T12:11:35;8.30;99.90
69895;DHT22;57172;52.034;5.090;2023-11-18T12:14:13;8.30;99.90
69895;DHT22;57172;52.034;5.090;2023-11-18T12:19:50;8.30;99.90
69895;DHT22;57172;52.034;5.090;2023-11-18T12:22:23;8.30;99.90
69895;DHT22;57172;52.034;5.090;2023-11-18T12:35:27;8.40;99.90
69895;DHT22;57172;52.034;5.090;2023-11-18T12:40:53;8.40;99.90
69895;DHT22;57172;52.034;5.090;2023-11-18T12:43:49;8.40;99.90
69895;DHT22;57172;52.034;5.090;2023-11-18T12:46:51;8.50;99.90
69895;DHT22;57172;52.034;5.090;2023-11-18T12:49:23;8.40;99.90
69895;DHT22;57172;52.034;5.090;2023-11-18T12:51:52;8.40;99.90
69895;DHT22;57172;52.034;5.090;2023-11-18T12:54:20;8.40;99.90
69895;DHT22;57172;52.034;5.090;2023-11-18T12:56:51;8.40;99.90
69895;DHT22;57172;52.034;5.090;2023-11-18T12:59:21;8.40;99.90
69895;DHT22;57172;52.034;5.090;2023-11-18T13:01:48;8.30;99.90
69895;DHT22;57172;52.034;5.090;2023-11-18T13:04:21;8.40;99.90
69895;DHT22;57172;52.034;5.090;2023-11-18T13:06:48;8.40;99.90
69895;DHT22;57172;52.034;5.090;2023-11-18T13:09:18;8.40;99.90
69895;DHT22;57172;52.034;5.090;2023-11-18T13:11:56;8.40;99.90
69895;DHT22;57172;52.034;5.090;2023-11-18T13:14:26;8.40;99.90
69895;DHT22;57172;52.034;5.090;2023-11-18T13:16:53;8.40;99.90
69895;DHT22;57172;52.034;5.090;2023-11-18T13:19:27;8.40;99.90
69895;DHT22;57172;52.034;5.090;2023-11-18T13:21:58;8.40;99.90
69895;DHT22;57172;52.034;5.090;2023-11-18T13:24:26;8.30;99.90
69895;DHT22;57172;52.034;5.090;2023-11-18T13:26:57;8.30;99.90
69895;DHT22;57172;52.034;5.090;2023-11-18T13:29:24;8.40;99.90
69895;DHT22;57172;52.034;5.090;2023-11-18T13:31:51;8.40;99.90
69895;DHT22;57172;52.034;5.090;2023-11-18T13:34:19;8.40;99.90
69895;DHT22;57172;52.034;5.090;2023-11-18T13:36:47;8.50;99.90
69895;DHT22;57172;52.034;5.090;2023-11-18T13:39:19;8.50;99.90
69895;DHT22;57172;52.034;5.090;2023-11-18T13:41:51;8.50;99.90
69895;DHT22;57172;52.034;5.090;2023-11-18T13:44:36;8.50;99.90
69895;DHT22;57172;52.034;5.090;2023-11-18T13:47:06;8.50;99.90
69895;DHT22;57172;52.034;5.090;2023-11-18T13:49:33;8.50;99.90
69895;DHT22;57172;52.034;5.090;2023-11-18T13:52:03;8.50;99.90
69895;DHT22;57172;52.034;5.090;2023-11-18T13:54:31;8.50;99.90
69895;DHT22;57172;52.034;5.090;2023-11-18T13:56:59;8.50;99.90
69895;DHT22;57172;52.034;5.090;2023-11-18T13:59:26;8.60;99.90
69895;DHT22;57172;52.034;5.090;2023-11-18T14:01:54;8.60;99.90
69895;DHT22;57172;52.034;5.090;2023-11-18T14:04:26;8.60;99.90
69895;DHT22;57172;52.034;5.090;2023-11-18T14:06:58;8.60;99.90
69895;DHT22;57172;52.034;5.090;2023-11-18T14:09:36;8.60;99.90
69895;DHT22;57172;52.034;5.090;2023-11-18T14:12:07;8.60;99.90
69895;DHT22;57172;52.034;5.090;2023-11-18T14:14:35;8.60;99.90
69895;DHT22;57172;52.034;5.090;2023-11-18T14:17:02;8.60;99.90
69895;DHT22;57172;52.034;5.090;2023-11-18T14:19:29;8.60;99.90
69895;DHT22;57172;52.034;5.090;2023-11-18T14:21:56;8.60;99.90
69895;DHT22;57172;52.034;5.090;2023-11-18T14:24:24;8.70;99.90
69895;DHT22;57172;52.034;5.090;2023-11-18T14:26:54;8.70;99.90
69895;DHT22;57172;52.034;5.090;2023-11-18T14:29:22;8.70;99.90
69895;DHT22;57172;52.034;5.090;2023-11-18T14:31:51;8.70;99.90
69895;DHT22;57172;52.034;5.090;2023-11-18T14:34:19;8.70;99.90
69895;DHT22;57172;52.034;5.090;2023-11-18T14:36:46;8.70;99.90
69895;DHT22;57172;52.034;5.090;2023-11-18T14:39:13;8.70;99.90
69895;DHT22;57172;52.034;5.090;2023-11-18T14:41:48;8.70;99.90
69895;DHT22;57172;52.034;5.090;2023-11-18T14:44:15;8.70;99.90
69895;DHT22;57172;52.034;5.090;2023-11-18T14:46:42;8.70;99.90
69895;DHT22;57172;52.034;5.090;2023-11-18T14:49:09;8.70;99.90
69895;DHT22;57172;52.034;5.090;2023-11-18T14:51:37;8.70;99.90
69895;DHT22;57172;52.034;5.090;2023-11-18T14:54:04;8.70;99.90
69895;DHT22;57172;52.034;5.090;2023-11-18T14:56:32;8.70;99.90
69895;DHT22;57172;52.034;5.090;2023-11-18T14:59:01;8.70;99.90
69895;DHT22;57172;52.034;5.090;2023-11-18T15:01:32;8.70;99.90
69895;DHT22;57172;52.034;5.090;2023-11-18T15:03:58;8.70;99.90
69895;DHT22;57172;52.034;5.090;2023-11-18T15:06:27;8.70;99.90
69895;DHT22;57172;52.034;5.090;2023-11-18T15:08:54;8.70;99.90
69895;DHT22;57172;52.034;5.090;2023-11-18T15:11:24;8.80;99.90
69895;DHT22;57172;52.034;5.090;2023-11-18T15:13:52;8.80;99.90
69895;DHT22;57172;52.034;5.090;2023-11-18T15:16:20;8.80;99.90
69895;DHT22;57172;52.034;5.090;2023-11-18T15:18:48;8.80;99.90
69895;DHT22;57172;52.034;5.090;2023-11-18T15:21:19;8.80;99.90
69895;DHT22;57172;52.034;5.090;2023-11-18T15:23:46;8.80;99.90
69895;DHT22;57172;52.034;5.090;2023-11-18T15:26:15;8.80;99.90
69895;DHT22;57172;52.034;5.090;2023-11-18T15:28:42;8.80;99.90
69895;DHT22;57172;52.034;5.090;2023-11-18T15:31:09;8.80;99.90
69895;DHT22;57172;52.034;5.090;2023-11-18T15:33:36;8.90;99.90
69895;DHT22;57172;52.034;5.090;2023-11-18T15:36:04;8.90;99.90
69895;DHT22;57172;52.034;5.090;2023-11-18T15:38:34;8.90;99.90
69895;DHT22;57172;52.034;5.090;2023-11-18T15:41:02;8.90;99.90
69895;DHT22;57172;52.034;5.090;2023-11-18T15:43:29;8.90;99.90
69895;DHT22;57172;52.034;5.090;2023-11-18T15:45:56;8.90;99.90
69895;DHT22;57172;52.034;5.090;2023-11-18T15:48:25;8.90;99.90
69895;DHT22;57172;52.034;5.090;2023-11-18T15:50:56;8.90;99.90
69895;DHT22;57172;52.034;5.090;2023-11-18T15:53:26;8.90;99.90
69895;DHT22;57172;52.034;5.090;2023-11-18T15:55:55;8.90;99.90
69895;DHT22;57172;52.034;5.090;2023-11-18T15:58:22;8.90;99.90
69895;DHT22;57172;52.034;5.090;2023-11-18T16:00:53;8.90;99.90
69895;DHT22;57172;52.034;5.090;2023-11-18T16:03:20;8.90;99.90
69895;DHT22;57172;52.034;5.090;2023-11-18T16:05:47;8.90;99.90
69895;DHT22;57172;52.034;5.090;2023-11-18T16:08:14;9.00;99.90
69895;DHT22;57172;52.034;5.090;2023-11-18T16:10:41;9.00;99.90
69895;DHT22;57172;52.034;5.090;2023-11-18T16:13:09;9.00;99.90
69895;DHT22;57172;52.034;5.090;2023-11-18T16:15:36;9.00;99.90
69895;DHT22;57172;52.034;5.090;2023-11-18T16:18:03;9.10;99.90
69895;DHT22;57172;52.034;5.090;2023-11-18T16:20:31;9.10;99.90
69895;DHT22;57172;52.034;5.090;2023-11-18T16:23:01;9.10;99.90
69895;DHT22;57172;52.034;5.090;2023-11-18T16:25:30;9.10;99.90
69895;DHT22;57172;52.034;5.090;2023-11-18T16:27:58;9.20;99.90
69895;DHT22;57172;52.034;5.090;2023-11-18T16:30:26;9.20;99.90